createdAt,value
2022-11-22T00:00:28.106Z,-2.29
2022-11-22T00:02:55.643Z,-2.24
2022-11-22T00:05:22.570Z,-2.25
2022-11-22T00:07:49.583Z,-2.24
2022-11-22T00:10:16.894Z,-2.13
2022-11-22T00:12:44.359Z,-2.24
2022-11-22T00:15:12.005Z,-2.10
2022-11-22T00:17:39.322Z,-2.16
2022-11-22T00:20:08.773Z,-2.08
2022-11-22T00:22:39.715Z,-2.09
2022-11-22T00:25:09.980Z,-2.13
2022-11-22T00:27:36.865Z,-2.22
2022-11-22T00:30:04.338Z,-2.14
2022-11-22T00:32:31.334Z,-2.12
2022-11-22T00:34:58.204Z,-2.49
2022-11-22T00:37:25.303Z,-2.23
2022-11-22T00:39:52.196Z,-2.13
2022-11-22T00:42:19.098Z,-2.08
2022-11-22T00:44:45.987Z,-2.22
2022-11-22T00:47:12.906Z,-2.06
2022-11-22T00:49:39.818Z,-2.03
2022-11-22T00:52:06.834Z,-2.07
2022-11-22T00:54:33.718Z,-2.14
2022-11-22T00:57:00.582Z,-2.06
2022-11-22T00:59:27.656Z,-2.40
2022-11-22T01:01:54.750Z,-2.10
2022-11-22T01:04:21.829Z,-2.04
2022-11-22T01:06:48.791Z,-2.27
2022-11-22T01:09:21.708Z,-2.09
2022-11-22T01:11:49.006Z,-2.07
2022-11-22T01:14:16.758Z,-2.10
2022-11-22T01:16:43.728Z,-2.22
2022-11-22T01:19:10.955Z,-2.25
2022-11-22T01:21:38.220Z,-2.28
2022-11-22T01:24:05.508Z,-2.27
2022-11-22T01:26:33.590Z,-2.35
2022-11-22T01:29:00.582Z,-2.62
2022-11-22T01:31:27.443Z,-2.03
2022-11-22T01:33:54.339Z,-1.99
2022-11-22T01:36:21.308Z,-1.99
2022-11-22T01:38:48.245Z,-2.00
2022-11-22T01:41:15.202Z,-2.06
2022-11-22T01:43:42.109Z,-1.99
2022-11-22T01:46:34.946Z,-1.96
2022-11-22T01:49:11.620Z,-2.14
2022-11-22T01:51:44.691Z,-2.01
2022-11-22T01:54:16.050Z,-2.02
2022-11-22T01:56:46.128Z,-2.03
2022-11-22T01:59:18.770Z,-1.97
2022-11-22T02:01:45.770Z,-1.94
2022-11-22T02:04:17.557Z,-2.11
2022-11-22T02:07:14.420Z,-1.88
2022-11-22T02:09:43.553Z,-2.01
2022-11-22T02:12:12.297Z,-1.99
2022-11-22T02:14:40.870Z,-2.00
2022-11-22T02:17:07.966Z,-1.96
2022-11-22T02:19:45.602Z,-1.90
2022-11-22T02:22:27.305Z,-1.96
2022-11-22T02:25:12.897Z,-2.12
2022-11-22T02:27:40.318Z,-2.10
2022-11-22T02:30:07.688Z,-2.08
2022-11-22T02:32:34.769Z,-2.10
2022-11-22T02:35:01.797Z,-2.00
2022-11-22T02:37:33.098Z,-1.87
2022-11-22T02:40:05.132Z,-1.83
2022-11-22T02:42:33.720Z,-1.83
2022-11-22T02:45:00.616Z,-1.86
2022-11-22T02:47:27.473Z,-1.99
2022-11-22T02:49:54.393Z,-1.95
2022-11-22T02:52:21.348Z,-2.11
2022-11-22T02:54:48.182Z,-1.83
2022-11-22T02:57:15.046Z,-1.87
2022-11-22T02:59:41.909Z,-2.07
2022-11-22T03:02:08.818Z,-1.92
2022-11-22T03:04:35.737Z,-2.00
2022-11-22T03:07:03.066Z,-1.91
2022-11-22T03:09:31.091Z,-2.04
2022-11-22T03:11:58.519Z,-1.81
2022-11-22T03:14:26.023Z,-1.75
2022-11-22T03:16:53.002Z,-1.71
2022-11-22T03:19:20.350Z,-2.00
2022-11-22T03:21:47.256Z,-1.98
2022-11-22T03:24:14.455Z,-1.81
2022-11-22T03:26:41.487Z,-1.89
2022-11-22T03:29:08.356Z,-1.82
2022-11-22T03:31:36.073Z,-1.91
2022-11-22T03:34:03.007Z,-1.82
2022-11-22T03:36:29.910Z,-1.81
2022-11-22T03:38:56.931Z,-1.85
2022-11-22T03:41:23.783Z,-2.02
2022-11-22T03:43:50.741Z,-2.18
2022-11-22T03:46:19.626Z,-1.85
2022-11-22T03:48:47.144Z,-1.94
2022-11-22T03:51:14.233Z,-2.05
2022-11-22T03:53:41.161Z,-1.80
2022-11-22T03:56:08.132Z,-1.89
2022-11-22T03:58:35.243Z,-1.82
2022-11-22T04:01:02.349Z,-2.15
2022-11-22T04:03:29.305Z,-2.01
2022-11-22T04:05:56.603Z,-1.98
2022-11-22T04:08:23.794Z,-2.30
2022-11-22T04:10:51.500Z,-1.93
2022-11-22T04:13:19.238Z,-2.04
2022-11-22T04:15:46.286Z,-2.06
2022-11-22T04:18:14.346Z,-2.10
2022-11-22T04:20:59.701Z,-2.34
2022-11-22T04:23:32.444Z,-1.71
2022-11-22T04:26:00.931Z,-1.77
2022-11-22T04:28:53.569Z,-1.99
2022-11-22T04:31:33.445Z,-1.99
2022-11-22T04:34:00.322Z,-1.83
2022-11-22T04:36:27.205Z,-1.85
2022-11-22T04:38:54.068Z,-1.80
2022-11-22T04:41:21.148Z,-1.78
2022-11-22T04:44:14.470Z,-1.75
2022-11-22T04:46:41.331Z,-1.70
2022-11-22T04:49:08.223Z,-1.94
2022-11-22T04:51:53.929Z,-1.75
2022-11-22T04:54:20.959Z,-1.66
2022-11-22T04:56:48.099Z,-1.88
2022-11-22T04:59:15.104Z,-1.93
2022-11-22T05:01:41.989Z,-1.89
2022-11-22T05:04:08.869Z,-1.74
2022-11-22T05:06:37.459Z,-2.13
2022-11-22T05:09:04.725Z,-2.18
2022-11-22T05:11:31.658Z,-1.57
2022-11-22T05:13:58.700Z,-1.76
2022-11-22T05:16:25.581Z,-1.67
2022-11-22T05:19:01.657Z,-2.24
2022-11-22T05:21:30.005Z,-1.82
2022-11-22T05:23:57.201Z,-1.59
2022-11-22T05:26:30.173Z,-1.49
2022-11-22T05:29:00.836Z,-1.52
2022-11-22T05:31:28.001Z,-1.63
2022-11-22T05:33:57.085Z,-1.68
2022-11-22T05:36:24.736Z,-1.57
2022-11-22T05:38:52.345Z,-1.52
2022-11-22T05:41:19.366Z,-1.40
2022-11-22T05:43:46.472Z,-1.41
2022-11-22T05:46:26.438Z,-1.37
2022-11-22T05:48:55.235Z,-1.30
2022-11-22T05:51:29.074Z,-1.36
2022-11-22T05:53:59.356Z,-1.31
2022-11-22T05:56:26.249Z,-1.21
2022-11-22T05:58:53.408Z,-1.11
2022-11-22T06:01:22.407Z,-1.40
2022-11-22T06:03:50.150Z,-1.36
2022-11-22T06:06:20.232Z,-1.14
2022-11-22T06:08:48.848Z,-1.41
2022-11-22T06:11:21.866Z,-1.20
2022-11-22T06:13:51.842Z,-1.15
2022-11-22T06:16:18.828Z,-1.34
2022-11-22T06:18:45.785Z,-1.05
2022-11-22T06:21:15.920Z,-1.10
2022-11-22T06:23:43.123Z,-0.93
2022-11-22T06:26:12.545Z,-0.80
2022-11-22T06:28:40.879Z,-0.98
2022-11-22T06:31:28.509Z,-0.74
2022-11-22T06:33:56.213Z,-0.79
2022-11-22T06:36:27.087Z,-0.65
2022-11-22T06:38:54.213Z,-1.20
2022-11-22T06:41:23.906Z,-0.65
2022-11-22T06:43:52.642Z,-0.96
2022-11-22T06:46:21.838Z,-0.69
2022-11-22T06:48:49.745Z,-0.78
2022-11-22T06:51:25.559Z,-0.58
2022-11-22T06:53:55.454Z,-0.43
2022-11-22T06:56:26.346Z,-0.62
2022-11-22T06:58:53.985Z,-0.63
2022-11-22T07:01:28.941Z,-0.55
2022-11-22T07:03:58.482Z,-0.65
2022-11-22T07:06:31.085Z,-0.53
2022-11-22T07:08:59.632Z,-0.38
2022-11-22T07:11:28.726Z,-0.53
2022-11-22T07:14:01.710Z,-0.33
2022-11-22T07:16:32.709Z,-0.58
2022-11-22T07:19:02.907Z,-0.70
2022-11-22T07:21:29.967Z,-0.52
2022-11-22T07:23:56.922Z,-0.34
2022-11-22T07:26:25.661Z,-0.37
2022-11-22T07:28:52.772Z,-0.54
2022-11-22T07:31:19.735Z,-0.43
2022-11-22T07:33:47.246Z,-0.43
2022-11-22T07:36:19.368Z,-0.58
2022-11-22T07:38:47.988Z,-0.53
2022-11-22T07:41:16.091Z,-0.53
2022-11-22T07:43:43.039Z,-0.40
2022-11-22T07:46:22.351Z,-0.37
2022-11-22T07:48:50.018Z,-0.22
2022-11-22T07:51:17.561Z,-0.23
2022-11-22T07:53:44.626Z,-0.14
2022-11-22T07:56:11.634Z,-0.07
2022-11-22T07:58:38.865Z,-0.06
2022-11-22T08:01:08.176Z,-0.16
2022-11-22T08:03:35.956Z,-0.26
2022-11-22T08:06:04.865Z,-0.35
2022-11-22T08:08:31.954Z,-0.05
2022-11-22T08:10:58.907Z,-0.16
2022-11-22T08:13:26.001Z,-0.09
2022-11-22T08:15:54.623Z,-0.14
2022-11-22T08:18:22.730Z,-0.03
2022-11-22T08:20:49.657Z,0.14
2022-11-22T08:23:16.637Z,-0.57
2022-11-22T08:25:43.530Z,-0.03
2022-11-22T08:28:14.094Z,0.07
2022-11-22T08:30:42.566Z,0.20
2022-11-22T08:33:09.523Z,0.12
2022-11-22T08:35:36.450Z,0.01
2022-11-22T08:38:03.484Z,0.08
2022-11-22T08:40:30.434Z,-0.03
2022-11-22T08:42:57.888Z,0.06
2022-11-22T08:45:25.022Z,-0.05
2022-11-22T08:47:52.682Z,0.06
2022-11-22T08:50:19.597Z,-0.31
2022-11-22T08:52:46.572Z,0.28
2022-11-22T08:55:13.519Z,0.09
2022-11-22T08:57:40.435Z,-0.08
2022-11-22T09:00:08.286Z,0.11
2022-11-22T09:02:35.218Z,0.26
2022-11-22T09:05:02.700Z,0.33
2022-11-22T09:10:18.527Z,0.39
2022-11-22T09:12:46.500Z,0.37
2022-11-22T09:15:14.324Z,0.46
2022-11-22T09:17:42.089Z,0.18
2022-11-22T09:20:10.115Z,0.36
2022-11-22T09:22:37.903Z,0.54
2022-11-22T09:25:06.447Z,0.60
2022-11-22T09:27:35.274Z,0.48
2022-11-22T09:30:04.212Z,0.60
2022-11-22T09:32:33.864Z,0.57
2022-11-22T09:35:01.077Z,0.53
2022-11-22T09:37:31.862Z,0.66
2022-11-22T09:39:59.119Z,0.75
2022-11-22T09:42:52.547Z,0.72
2022-11-22T09:45:39.126Z,0.68
2022-11-22T09:48:21.133Z,0.78
2022-11-22T09:51:05.771Z,0.90
2022-11-22T09:53:54.384Z,0.73
2022-11-22T09:56:25.590Z,0.48
2022-11-22T09:58:57.414Z,0.31
2022-11-22T10:01:31.760Z,0.31
2022-11-22T10:04:13.729Z,0.42
2022-11-22T10:06:43.848Z,0.40
2022-11-22T10:09:10.766Z,0.61
2022-11-22T10:11:49.475Z,0.67
2022-11-22T10:14:34.869Z,0.59
2022-11-22T10:17:29.980Z,0.83
2022-11-22T10:20:06.166Z,0.90
2022-11-22T10:22:35.042Z,0.78
2022-11-22T10:25:10.253Z,0.87
2022-11-22T10:27:38.792Z,0.93
2022-11-22T10:30:13.566Z,1.03
2022-11-22T10:32:50.240Z,0.62
2022-11-22T10:35:28.494Z,0.87
2022-11-22T10:38:22.585Z,0.99
2022-11-22T10:41:10.635Z,0.86
2022-11-22T10:43:37.442Z,0.88
2022-11-22T10:46:20.490Z,1.15
2022-11-22T10:49:17.977Z,1.28
2022-11-22T10:52:14.712Z,1.20
2022-11-22T10:55:03.506Z,1.22
2022-11-22T10:57:38.343Z,1.24
2022-11-22T11:00:19.779Z,1.24
2022-11-22T11:02:52.737Z,1.09
2022-11-22T11:05:23.279Z,1.11
2022-11-22T11:07:56.771Z,1.11
2022-11-22T11:10:37.362Z,1.08
2022-11-22T11:13:21.658Z,1.20
2022-11-22T11:15:56.024Z,1.17
2022-11-22T11:18:35.742Z,1.06
2022-11-22T11:21:02.790Z,1.11
2022-11-22T11:23:29.730Z,1.18
2022-11-22T11:26:17.961Z,1.33
2022-11-22T11:28:45.378Z,1.35
2022-11-22T11:31:18.633Z,1.45
2022-11-22T11:33:46.574Z,1.48
2022-11-22T11:36:24.745Z,1.03
2022-11-22T11:38:56.785Z,1.36
2022-11-22T11:41:26.837Z,1.29
2022-11-22T11:43:55.941Z,1.25
2022-11-22T11:46:28.647Z,1.40
2022-11-22T11:49:17.298Z,1.45
2022-11-22T11:51:46.632Z,1.36
2022-11-22T11:54:22.937Z,1.33
2022-11-22T11:56:52.755Z,1.31
2022-11-22T11:59:22.370Z,1.47
2022-11-22T12:01:57.202Z,1.57
2022-11-22T12:04:35.028Z,0.92
2022-11-22T12:07:24.136Z,1.40
2022-11-22T12:09:53.191Z,1.40
2022-11-22T12:12:48.000Z,1.25
2022-11-22T12:15:18.182Z,1.07
2022-11-22T12:18:06.954Z,1.32
2022-11-22T12:20:45.593Z,1.20
2022-11-22T12:23:12.807Z,1.19
2022-11-22T12:25:40.617Z,1.00
2022-11-22T12:28:27.567Z,1.30
2022-11-22T12:30:57.439Z,1.38
2022-11-22T12:33:47.607Z,1.31
2022-11-22T12:39:25.144Z,1.30
2022-11-22T12:42:01.553Z,1.26
2022-11-22T12:44:35.361Z,1.35
2022-11-22T12:47:10.099Z,1.16
2022-11-22T12:48:22.656Z,1.40
2022-11-22T12:49:55.131Z,1.22
2022-11-22T12:52:44.146Z,1.33
2022-11-22T12:55:11.053Z,1.36
2022-11-22T12:57:58.147Z,1.46
2022-11-22T13:00:28.958Z,1.37
2022-11-22T13:03:07.462Z,1.49
2022-11-22T13:05:43.578Z,1.48
2022-11-22T13:08:33.198Z,0.54
2022-11-22T13:11:16.761Z,1.43
2022-11-22T13:13:47.829Z,1.31
2022-11-22T13:16:15.101Z,1.49
2022-11-22T13:18:46.737Z,1.39
2022-11-22T13:21:40.069Z,1.15
2022-11-22T13:24:31.404Z,1.36
2022-11-22T13:27:10.217Z,1.49
2022-11-22T13:29:41.849Z,1.51
2022-11-22T13:32:11.594Z,1.46
2022-11-22T13:35:00.144Z,1.35
2022-11-22T13:37:29.838Z,1.35
2022-11-22T13:39:56.903Z,1.44
2022-11-22T13:42:28.159Z,1.56
2022-11-22T13:44:58.230Z,1.42
2022-11-22T13:47:39.056Z,1.55
2022-11-22T13:50:33.768Z,1.64
2022-11-22T13:53:23.622Z,1.56
2022-11-22T13:55:51.462Z,1.75
2022-11-22T13:58:24.358Z,1.72
2022-11-22T14:00:53.743Z,1.68
2022-11-22T14:03:27.913Z,1.72
2022-11-22T14:05:58.177Z,1.67
2022-11-22T14:08:38.803Z,1.68
2022-11-22T14:11:36.430Z,1.58
2022-11-22T14:14:33.460Z,1.55
2022-11-22T14:17:15.620Z,1.59
2022-11-22T14:20:07.747Z,1.61
2022-11-22T14:22:50.224Z,1.62
2022-11-22T14:25:38.694Z,1.78
2022-11-22T14:28:35.850Z,1.78
2022-11-22T14:31:22.024Z,1.60
2022-11-22T14:34:34.350Z,1.62
2022-11-22T14:37:10.463Z,1.69
2022-11-22T14:39:55.811Z,1.61
2022-11-22T14:42:43.402Z,1.64
2022-11-22T14:45:10.341Z,1.64
2022-11-22T14:47:41.038Z,1.64
2022-11-22T14:50:36.830Z,1.11
2022-11-22T14:53:26.222Z,1.68
2022-11-22T14:56:03.661Z,1.70
2022-11-22T14:58:35.158Z,1.56
2022-11-22T15:01:46.735Z,1.69
2022-11-22T15:09:21.286Z,1.64
2022-11-22T15:09:21.748Z,1.50
2022-11-22T15:10:29.047Z,1.63
2022-11-22T15:13:07.800Z,1.50
2022-11-22T15:57:37.757Z,1.76
2022-11-22T16:00:28.858Z,1.83
2022-11-22T16:03:01.668Z,1.84
2022-11-22T16:06:05.473Z,1.68
2022-11-22T16:08:27.876Z,1.88
2022-11-22T16:10:59.270Z,1.74
2022-11-22T16:13:28.606Z,1.86
2022-11-22T16:16:13.914Z,1.94
2022-11-22T16:18:42.083Z,1.95
2022-11-22T16:21:11.876Z,1.84
2022-11-22T16:23:40.209Z,2.01
2022-11-22T16:26:19.362Z,2.04
2022-11-22T16:28:51.545Z,1.81
2022-11-22T16:31:26.215Z,1.95
2022-11-22T16:33:55.115Z,1.68
2022-11-22T16:36:24.009Z,1.37
2022-11-22T16:38:51.379Z,1.98
2022-11-22T16:41:24.775Z,1.88
2022-11-22T16:43:54.862Z,1.84
2022-11-22T16:46:22.000Z,1.32
2022-11-22T16:48:49.148Z,1.77
2022-11-22T16:51:36.321Z,1.87
2022-11-22T16:54:11.161Z,1.76
2022-11-22T16:56:38.006Z,1.70
2022-11-22T16:59:11.094Z,1.70
2022-11-22T17:01:42.140Z,1.59
2022-11-22T17:04:22.195Z,1.76
2022-11-22T17:06:49.737Z,1.85
2022-11-22T17:09:16.641Z,1.69
2022-11-22T17:11:44.713Z,1.59
2022-11-22T17:14:15.950Z,1.81
2022-11-22T17:16:43.018Z,1.67
2022-11-22T17:19:30.378Z,1.71
2022-11-22T17:21:58.629Z,1.52
2022-11-22T17:24:25.721Z,1.64
2022-11-22T17:26:52.653Z,1.66
2022-11-22T17:29:43.336Z,1.67
2022-11-22T17:32:06.574Z,1.90
2022-11-22T17:34:33.646Z,1.75
2022-11-22T17:37:00.828Z,1.96
2022-11-22T17:39:28.631Z,1.93
2022-11-22T17:41:55.812Z,1.86
2022-11-22T17:44:22.849Z,1.90
2022-11-22T17:46:49.884Z,2.06
2022-11-22T17:49:16.771Z,2.00
2022-11-22T17:51:46.776Z,1.83
2022-11-22T17:54:13.680Z,1.91
2022-11-22T17:56:40.587Z,1.85
2022-11-22T17:59:07.577Z,1.81
2022-11-22T18:01:36.912Z,1.70
2022-11-22T18:04:05.432Z,1.48
2022-11-22T18:06:32.353Z,1.63
2022-11-22T18:09:00.392Z,1.60
2022-11-22T18:11:27.293Z,1.47
2022-11-22T18:13:54.257Z,1.63
2022-11-22T18:16:22.368Z,1.47
2022-11-22T18:18:56.613Z,1.59
2022-11-22T18:21:24.755Z,1.39
2022-11-22T18:23:51.726Z,1.52
2022-11-22T18:31:53.643Z,1.58
2022-11-22T18:34:21.961Z,1.78
2022-11-22T18:37:06.254Z,1.78
2022-11-22T18:39:36.856Z,1.77
2022-11-22T18:42:06.201Z,1.83
2022-11-22T18:44:33.401Z,1.91
2022-11-22T18:47:00.457Z,1.96
2022-11-22T18:49:29.086Z,1.98
2022-11-22T18:51:56.230Z,2.04
2022-11-22T18:54:23.739Z,1.81
2022-11-22T18:56:51.901Z,1.94
2022-11-22T18:59:19.036Z,1.94
2022-11-22T19:01:46.229Z,2.04
2022-11-22T19:04:15.296Z,1.76
2022-11-22T19:06:43.271Z,1.71
2022-11-22T19:09:10.372Z,1.92
2022-11-22T19:11:37.294Z,1.73
2022-11-22T19:14:04.651Z,1.62
2022-11-22T19:16:31.716Z,1.66
2022-11-22T19:18:59.671Z,1.04
2022-11-22T19:21:28.639Z,1.68
2022-11-22T19:23:56.700Z,1.69
2022-11-22T19:26:25.748Z,1.69
2022-11-22T19:28:57.955Z,1.54
2022-11-22T19:31:29.441Z,1.78
2022-11-22T19:33:57.244Z,1.87
2022-11-22T19:36:32.256Z,1.93
2022-11-22T19:39:00.379Z,1.73
2022-11-22T19:41:27.421Z,1.79
2022-11-22T19:43:56.518Z,1.80
2022-11-22T19:46:24.641Z,1.87
2022-11-22T19:48:56.860Z,1.92
2022-11-22T19:51:25.313Z,1.86
2022-11-22T19:53:59.540Z,2.00
2022-11-22T19:56:30.376Z,1.94
2022-11-22T19:58:58.913Z,2.09
2022-11-22T20:01:28.632Z,1.99
2022-11-22T20:04:01.722Z,1.84
2022-11-22T20:06:29.374Z,1.99
2022-11-22T20:09:05.325Z,2.02
2022-11-22T20:11:32.686Z,1.93
2022-11-22T20:13:59.613Z,1.93
2022-11-22T20:16:28.538Z,2.07
2022-11-22T20:19:00.113Z,2.14
2022-11-22T20:21:28.903Z,2.13
2022-11-22T20:23:56.805Z,2.21
2022-11-22T20:26:24.684Z,1.91
2022-11-22T20:29:13.065Z,2.37
2022-11-22T20:31:40.949Z,2.39
2022-11-22T20:34:08.910Z,2.30
2022-11-22T20:36:36.223Z,1.81
2022-11-22T20:39:09.746Z,2.35
2022-11-22T20:41:37.933Z,2.29
2022-11-22T20:44:05.045Z,2.34
2022-11-22T20:46:35.124Z,2.40
2022-11-22T20:49:02.063Z,2.15
2022-11-22T20:51:29.665Z,2.11
2022-11-22T20:53:57.335Z,2.17
2022-11-22T20:56:24.984Z,2.19
2022-11-22T20:58:52.604Z,2.14
2022-11-22T21:01:24.948Z,2.27
2022-11-22T21:03:52.988Z,2.17
2022-11-22T21:06:21.749Z,2.35
2022-11-22T21:08:49.119Z,2.18
2022-11-22T21:11:18.924Z,2.22
2022-11-22T21:13:47.350Z,2.33
2022-11-22T21:16:23.789Z,2.24
2022-11-22T21:19:01.172Z,2.26
2022-11-22T21:21:29.268Z,2.30
2022-11-22T21:23:57.911Z,2.27
2022-11-22T21:26:25.701Z,2.19
2022-11-22T21:28:53.625Z,2.23
2022-11-22T21:31:22.054Z,2.03
2022-11-22T21:33:49.385Z,2.18
2022-11-22T21:36:16.452Z,2.05
2022-11-22T21:38:43.483Z,1.97
2022-11-22T21:41:39.317Z,2.18
2022-11-22T21:44:01.484Z,2.17
2022-11-22T21:46:28.474Z,2.10
2022-11-22T21:48:56.039Z,2.17
2022-11-22T21:51:25.928Z,2.09
2022-11-22T21:53:59.211Z,2.09
2022-11-22T21:56:27.122Z,2.14
2022-11-22T21:58:54.093Z,2.12
2022-11-22T22:01:21.225Z,2.06
2022-11-22T22:03:48.110Z,2.15
2022-11-22T22:06:15.074Z,2.14
2022-11-22T22:08:42.009Z,2.19
2022-11-22T22:11:08.918Z,2.24
2022-11-22T22:13:36.086Z,2.17
2022-11-22T22:16:06.873Z,2.21
2022-11-22T22:18:35.812Z,2.27
2022-11-22T22:21:07.646Z,2.09
2022-11-22T22:23:35.806Z,2.10
2022-11-22T22:26:05.374Z,2.22
2022-11-22T22:28:35.333Z,2.26
2022-11-22T22:31:10.529Z,2.22
2022-11-22T22:33:39.918Z,2.24
2022-11-22T22:36:08.598Z,2.21
2022-11-22T22:38:35.918Z,1.71
2022-11-22T22:41:05.321Z,2.24
2022-11-22T22:43:37.784Z,2.32
2022-11-22T22:46:06.968Z,2.27
2022-11-22T22:48:34.427Z,2.36
2022-11-22T22:51:10.804Z,2.30
2022-11-22T22:53:37.808Z,2.10
2022-11-22T22:56:05.504Z,2.18
2022-11-22T22:58:32.936Z,2.33
2022-11-22T23:01:15.330Z,2.26
2022-11-22T23:03:42.390Z,1.98
2022-11-22T23:06:11.716Z,2.34
2022-11-22T23:08:39.421Z,2.22
2022-11-22T23:11:08.821Z,2.34
2022-11-22T23:13:37.762Z,2.10
2022-11-22T23:16:06.754Z,2.10
2022-11-22T23:18:38.925Z,1.94
2022-11-22T23:21:07.963Z,2.27
2022-11-22T23:23:35.130Z,2.13
2022-11-22T23:26:04.810Z,2.26
2022-11-22T23:28:32.138Z,2.24
2022-11-22T23:31:12.814Z,2.24
2022-11-22T23:33:40.377Z,2.19
2022-11-22T23:36:09.882Z,2.12
2022-11-22T23:38:36.818Z,2.19
2022-11-22T23:41:04.384Z,2.23
2022-11-22T23:43:31.952Z,2.24
2022-11-22T23:45:59.232Z,2.38
2022-11-22T23:48:27.182Z,1.84
2022-11-22T23:50:54.106Z,2.32
2022-11-22T23:53:21.000Z,2.36
2022-11-22T23:55:47.894Z,2.39
2022-11-22T23:58:14.814Z,2.31
